Time,TemperatureF,DewpointF,PressureIn,WindDirection,WindDirectionDegrees,WindSpeedMPH,WindSpeedGustMPH,Humidity,HourlyPrecipIn,Conditions,Clouds,dailyrainin,SoftwareType,DateUTC
2013-07-16 00:01:00,79.3,73.7,30.05,WSW,247,0.0,-999.0,83,-99.99,,,0.00,Acu-Link.com,2013-07-16 04:01:00,
2013-07-16 00:16:00,79.2,73.9,30.05,West,270,0.0,-999.0,84,-99.99,,,0.00,Acu-Link.com,2013-07-16 04:16:00,
2013-07-16 00:31:00,79.2,73.9,30.05,SSW,202,0.0,-999.0,84,-99.99,,,0.00,Acu-Link.com,2013-07-16 04:31:00,
2013-07-16 00:46:00,78.8,73.5,30.05,SW,225,0.0,-999.0,84,-99.99,,,0.00,Acu-Link.com,2013-07-16 04:46:00,
2013-07-16 01:01:00,78.6,73.7,30.04,SSW,202,0.0,-999.0,85,-99.99,,,0.00,Acu-Link.com,2013-07-16 05:01:00,
2013-07-16 01:16:00,78.8,73.9,30.04,ESE,112,0.0,-999.0,85,-99.99,,,0.00,Acu-Link.com,2013-07-16 05:16:00,
2013-07-16 01:31:00,78.6,73.7,30.03,WSW,247,1.1,-999.0,85,-99.99,,,0.00,Acu-Link.com,2013-07-16 05:31:00,
2013-07-16 01:46:00,78.4,73.5,30.04,South,180,0.0,-999.0,85,-99.99,,,0.00,Acu-Link.com,2013-07-16 05:46:00,
2013-07-16 02:01:00,78.6,73.7,30.03,West,270,0.0,-999.0,85,-99.99,,,0.00,Acu-Link.com,2013-07-16 06:01:00,
2013-07-16 02:16:00,78.6,73.7,30.03,SSW,202,0.0,-999.0,85,-99.99,,,0.00,Acu-Link.com,2013-07-16 06:16:00,
2013-07-16 02:32:00,78.3,73.8,30.03,NE,45,0.0,-999.0,86,-99.99,,,0.00,Acu-Link.com,2013-07-16 06:32:00,
2013-07-16 02:47:00,77.9,73.4,30.02,WNW,292,0.0,-999.0,86,-99.99,,,0.00,Acu-Link.com,2013-07-16 06:47:00,
2013-07-16 03:02:00,77.2,73.0,30.02,NNW,337,0.0,-999.0,87,-99.99,,,0.00,Acu-Link.com,2013-07-16 07:02:00,
2013-07-16 03:17:00,76.8,73.0,30.03,SSW,202,0.0,-999.0,88,-99.99,,,0.00,Acu-Link.com,2013-07-16 07:17:00,
2013-07-16 03:32:00,76.5,73.0,30.03,ENE,67,0.0,-999.0,89,-99.99,,,0.00,Acu-Link.com,2013-07-16 07:32:00,
2013-07-16 03:47:00,76.1,72.6,30.03,East,90,0.0,-999.0,89,-99.99,,,0.00,Acu-Link.com,2013-07-16 07:47:00,
2013-07-16 04:02:00,75.7,72.6,30.04,ESE,112,0.0,-999.0,90,-99.99,,,0.00,Acu-Link.com,2013-07-16 08:02:00,
2013-07-16 04:18:00,75.4,72.3,30.04,ESE,112,0.0,-999.0,90,-99.99,,,0.00,Acu-Link.com,2013-07-16 08:18:00,
2013-07-16 04:33:00,75.4,72.6,30.04,NW,315,0.0,-999.0,91,-99.99,,,0.00,Acu-Link.com,2013-07-16 08:33:00,
2013-07-16 04:48:00,75.2,72.4,30.05,ENE,67,0.0,-999.0,91,-99.99,,,0.00,Acu-Link.com,2013-07-16 08:48:00,
2013-07-16 05:03:00,75.0,72.2,30.05,ESE,112,0.0,-999.0,91,-99.99,,,0.00,Acu-Link.com,2013-07-16 09:03:00,
2013-07-16 05:18:00,75.0,72.5,30.06,SSE,157,0.0,-999.0,92,-99.99,,,0.00,Acu-Link.com,2013-07-16 09:18:00,
2013-07-16 05:33:00,74.8,72.3,30.05,East,90,0.0,-999.0,92,-99.99,,,0.00,Acu-Link.com,2013-07-16 09:33:00,
2013-07-16 05:49:00,74.7,72.5,30.06,NE,45,0.0,-999.0,93,-99.99,,,0.00,Acu-Link.com,2013-07-16 09:49:00,
2013-07-16 06:04:00,74.7,72.5,30.06,NNE,22,0.0,-999.0,93,-99.99,,,0.00,Acu-Link.com,2013-07-16 10:04:00,
2013-07-16 06:19:00,74.7,72.5,30.06,West,270,0.0,-999.0,93,-99.99,,,0.00,Acu-Link.com,2013-07-16 10:19:00,
2013-07-16 06:34:00,74.7,72.5,30.06,WSW,247,1.1,-999.0,93,-99.99,,,0.00,Acu-Link.com,2013-07-16 10:34:00,
2013-07-16 06:49:00,74.7,72.5,30.06,ESE,112,0.0,-999.0,93,-99.99,,,0.00,Acu-Link.com,2013-07-16 10:49:00,
2013-07-16 07:04:00,74.8,72.6,30.06,North,0,0.0,-999.0,93,-99.99,,,0.00,Acu-Link.com,2013-07-16 11:04:00,
2013-07-16 07:19:00,75.0,72.8,30.06,ESE,112,0.0,-999.0,93,-99.99,,,0.00,Acu-Link.com,2013-07-16 11:19:00,
2013-07-16 07:34:00,75.4,73.2,30.06,East,90,1.1,-999.0,93,-99.99,,,0.00,Acu-Link.com,2013-07-16 11:34:00,
2013-07-16 07:49:00,77.4,73.9,30.06,NE,45,3.2,-999.0,89,-99.99,,,0.00,Acu-Link.com,2013-07-16 11:49:00,
2013-07-16 08:05:00,78.3,74.4,30.06,ESE,112,1.7,-999.0,88,-99.99,,,0.00,Acu-Link.com,2013-07-16 12:05:00,
2013-07-16 08:20:00,79.0,74.4,30.06,West,270,2.2,-999.0,86,-99.99,,,0.00,Acu-Link.com,2013-07-16 12:20:00,
2013-07-16 08:35:00,80.1,74.8,30.06,East,90,1.7,-999.0,84,-99.99,,,0.00,Acu-Link.com,2013-07-16 12:35:00,
2013-07-16 08:50:00,81.0,74.6,30.06,ESE,112,1.7,-999.0,81,-99.99,,,0.00,Acu-Link.com,2013-07-16 12:50:00,
2013-07-16 09:05:00,82.6,74.2,30.05,ESE,112,0.0,-999.0,76,-99.99,,,0.00,Acu-Link.com,2013-07-16 13:05:00,
2013-07-16 09:20:00,84.2,74.2,30.05,ESE,112,1.1,-999.0,72,-99.99,,,0.00,Acu-Link.com,2013-07-16 13:20:00,
2013-07-16 09:35:00,86.0,75.0,30.05,WNW,292,1.7,-999.0,70,-99.99,,,0.00,Acu-Link.com,2013-07-16 13:35:00,
2013-07-16 09:51:00,85.8,74.9,30.05,SSE,157,1.7,-999.0,70,-99.99,,,0.00,Acu-Link.com,2013-07-16 13:51:00,
2013-07-16 10:06:00,86.5,74.2,30.04,South,180,2.7,-999.0,67,-99.99,,,0.00,Acu-Link.com,2013-07-16 14:06:00,
2013-07-16 10:21:00,87.1,74.8,30.04,ESE,112,1.1,-999.0,67,-99.99,,,0.00,Acu-Link.com,2013-07-16 14:21:00,
2013-07-16 10:36:00,88.0,75.6,30.04,West,270,1.7,-999.0,67,-99.99,,,0.00,Acu-Link.com,2013-07-16 14:36:00,
2013-07-16 10:51:00,88.2,74.9,30.04,WSW,247,0.0,-999.0,65,-99.99,,,0.00,Acu-Link.com,2013-07-16 14:51:00,
2013-07-16 11:06:00,89.2,75.4,30.04,WSW,247,2.7,-999.0,64,-99.99,,,0.00,Acu-Link.com,2013-07-16 15:06:00,
2013-07-16 11:21:00,87.8,74.5,30.04,SSW,202,2.2,-999.0,65,-99.99,,,0.00,Acu-Link.com,2013-07-16 15:21:00,
2013-07-16 11:37:00,86.5,75.5,30.03,SW,225,4.7,-999.0,70,-99.99,,,0.00,Acu-Link.com,2013-07-16 15:37:00,
2013-07-16 11:52:00,87.4,76.4,30.03,SW,225,3.2,-999.0,70,-99.99,,,0.00,Acu-Link.com,2013-07-16 15:52:00,
2013-07-16 12:07:00,87.8,76.8,30.03,WSW,247,3.7,-999.0,70,-99.99,,,0.00,Acu-Link.com,2013-07-16 16:07:00,
2013-07-16 12:22:00,88.5,76.6,30.03,SW,225,3.7,-999.0,68,-99.99,,,0.00,Acu-Link.com,2013-07-16 16:22:00,
2013-07-16 12:37:00,90.0,77.1,30.03,SSW,202,6.3,-999.0,66,-99.99,,,0.00,Acu-Link.com,2013-07-16 16:37:00,
2013-07-16 12:52:00,89.4,77.0,30.03,SW,225,2.2,-999.0,67,-99.99,,,0.00,Acu-Link.com,2013-07-16 16:52:00,
2013-07-16 13:07:00,89.8,75.5,30.02,SW,225,3.2,-999.0,63,-99.99,,,0.00,Acu-Link.com,2013-07-16 17:07:00,
2013-07-16 13:22:00,90.3,76.4,30.03,NNW,337,4.7,-999.0,64,-99.99,,,0.00,Acu-Link.com,2013-07-16 17:22:00,
2013-07-16 13:38:00,89.4,76.1,30.02,SSE,157,1.7,-999.0,65,-99.99,,,0.00,Acu-Link.com,2013-07-16 17:38:00,
2013-07-16 13:53:00,91.6,76.7,30.02,WSW,247,2.7,-999.0,62,-99.99,,,0.00,Acu-Link.com,2013-07-16 17:53:00,
2013-07-16 14:08:00,91.2,76.8,30.00,SW,225,4.7,-999.0,63,-99.99,,,0.00,Acu-Link.com,2013-07-16 18:08:00,
2013-07-16 14:23:00,91.2,76.3,30.00,SW,225,7.8,-999.0,62,-99.99,,,0.00,Acu-Link.com,2013-07-16 18:23:00,
2013-07-16 14:38:00,90.9,77.5,30.00,SW,225,7.8,-999.0,65,-99.99,,,0.00,Acu-Link.com,2013-07-16 18:38:00,
2013-07-16 14:53:00,90.9,77.5,29.99,SW,225,8.9,-999.0,65,-99.99,,,0.00,Acu-Link.com,2013-07-16 18:53:00,
2013-07-16 15:08:00,90.1,76.7,29.99,WSW,247,4.2,-999.0,65,-99.99,,,0.00,Acu-Link.com,2013-07-16 19:08:00,
2013-07-16 15:23:00,90.9,77.5,29.98,SW,225,4.2,-999.0,65,-99.99,,,0.00,Acu-Link.com,2013-07-16 19:23:00,
2013-07-16 15:38:00,89.8,76.9,29.99,SW,225,4.7,-999.0,66,-99.99,,,0.00,Acu-Link.com,2013-07-16 19:38:00,
2013-07-16 15:54:00,88.9,76.9,29.98,SSW,202,9.4,-999.0,68,-99.99,,,0.00,Acu-Link.com,2013-07-16 19:54:00,
2013-07-16 16:09:00,88.7,76.3,29.99,SSW,202,5.8,-999.0,67,-99.99,,,0.00,Acu-Link.com,2013-07-16 20:09:00,
2013-07-16 16:24:00,89.1,77.6,29.97,SSW,202,3.7,-999.0,69,-99.99,,,0.00,Acu-Link.com,2013-07-16 20:24:00,
2013-07-16 16:39:00,89.4,76.5,29.98,SSW,202,4.7,-999.0,66,-99.99,,,0.00,Acu-Link.com,2013-07-16 20:39:00,
2013-07-16 16:54:00,88.5,76.1,29.99,WSW,247,6.8,-999.0,67,-99.99,,,0.00,Acu-Link.com,2013-07-16 20:54:00,
2013-07-16 17:09:00,89.1,76.2,29.97,SSW,202,7.8,-999.0,66,-99.99,,,0.00,Acu-Link.com,2013-07-16 21:09:00,
2013-07-16 17:24:00,88.0,76.5,29.97,SW,225,3.2,-999.0,69,-99.99,,,0.00,Acu-Link.com,2013-07-16 21:24:00,
2013-07-16 17:39:00,87.8,76.8,29.97,West,270,6.8,-999.0,70,-99.99,,,0.00,Acu-Link.com,2013-07-16 21:39:00,
2013-07-16 17:54:00,87.6,77.0,29.96,SSW,202,7.3,-999.0,71,-99.99,,,0.00,Acu-Link.com,2013-07-16 21:54:00,
2013-07-16 18:10:00,86.5,76.0,29.96,SSW,202,7.8,-999.0,71,-99.99,,,0.00,Acu-Link.com,2013-07-16 22:10:00,
2013-07-16 18:25:00,86.0,75.9,29.97,South,180,4.7,-999.0,72,-99.99,,,0.00,Acu-Link.com,2013-07-16 22:25:00,
2013-07-16 18:40:00,86.2,74.8,29.96,SSW,202,5.3,-999.0,69,-99.99,,,0.00,Acu-Link.com,2013-07-16 22:40:00,
2013-07-16 18:55:00,85.8,74.4,29.96,SW,225,3.2,-999.0,69,-99.99,,,0.00,Acu-Link.com,2013-07-16 22:55:00,
2013-07-16 19:10:00,85.1,75.0,29.96,SW,225,5.3,-999.0,72,-99.99,,,0.00,Acu-Link.com,2013-07-16 23:10:00,
2013-07-16 19:25:00,84.6,75.4,29.98,SW,225,4.7,-999.0,74,-99.99,,,0.00,Acu-Link.com,2013-07-16 23:25:00,
2013-07-16 19:40:00,84.6,75.8,29.96,SW,225,4.2,-999.0,75,-99.99,,,0.00,Acu-Link.com,2013-07-16 23:40:00,
2013-07-16 19:55:00,84.0,75.2,29.97,South,180,4.7,-999.0,75,-99.99,,,0.00,Acu-Link.com,2013-07-16 23:55:00,
2013-07-16 20:10:00,83.8,75.4,29.97,SW,225,4.2,-999.0,76,-99.99,,,0.00,Acu-Link.com,2013-07-17 00:10:00,
2013-07-16 20:26:00,83.7,75.7,29.97,SSW,202,3.7,-999.0,77,-99.99,,,0.00,Acu-Link.com,2013-07-17 00:26:00,
2013-07-16 20:41:00,83.5,75.9,29.97,SW,225,3.7,-999.0,78,-99.99,,,0.00,Acu-Link.com,2013-07-17 00:41:00,
2013-07-16 20:56:00,83.3,75.7,29.98,SW,225,2.2,-999.0,78,-99.99,,,0.00,Acu-Link.com,2013-07-17 00:56:00,
2013-07-16 21:11:00,83.1,75.5,29.98,West,270,3.2,-999.0,78,-99.99,,,0.00,Acu-Link.com,2013-07-17 01:11:00,
2013-07-16 21:26:00,82.9,75.3,29.98,SW,225,3.7,-999.0,78,-99.99,,,0.00,Acu-Link.com,2013-07-17 01:26:00,
2013-07-16 21:41:00,82.8,75.6,29.99,South,180,5.8,-999.0,79,-99.99,,,0.00,Acu-Link.com,2013-07-17 01:41:00,
2013-07-16 21:56:00,82.8,75.6,29.99,SW,225,6.3,-999.0,79,-99.99,,,0.00,Acu-Link.com,2013-07-17 01:56:00,
2013-07-16 22:11:00,82.8,75.6,29.99,SW,225,4.2,-999.0,79,-99.99,,,0.00,Acu-Link.com,2013-07-17 02:11:00,
2013-07-16 22:26:00,82.8,75.6,30.00,SW,225,4.2,-999.0,79,-99.99,,,0.00,Acu-Link.com,2013-07-17 02:26:00,
2013-07-16 22:42:00,82.6,75.8,30.00,SW,225,3.2,-999.0,80,-99.99,,,0.00,Acu-Link.com,2013-07-17 02:42:00,
2013-07-16 22:57:00,82.4,76.0,30.00,SW,225,5.3,-999.0,81,-99.99,,,0.00,Acu-Link.com,2013-07-17 02:57:00,
2013-07-16 23:12:00,82.2,75.8,29.99,SW,225,4.7,-999.0,81,-99.99,,,0.00,Acu-Link.com,2013-07-17 03:12:00,
2013-07-16 23:27:00,82.0,75.6,29.98,SSW,202,4.2,-999.0,81,-99.99,,,0.00,Acu-Link.com,2013-07-17 03:27:00,
2013-07-16 23:42:00,82.0,75.6,29.99,SW,225,2.7,-999.0,81,-99.99,,,0.00,Acu-Link.com,2013-07-17 03:42:00,
2013-07-16 23:57:00,82.0,75.2,29.99,WSW,247,3.7,-999.0,80,-99.99,,,0.00,Acu-Link.com,2013-07-17 03:57:00,